createdAt,value
2023-02-17T00:01:00.981Z,43.00
2023-02-17T00:03:29.217Z,43.85
2023-02-17T00:05:56.024Z,41.75
2023-02-17T00:08:22.896Z,41.10
2023-02-17T00:10:57.870Z,41.65
2023-02-17T00:13:24.911Z,44.03
2023-02-17T00:15:52.147Z,42.58
2023-02-17T00:18:19.045Z,43.05
2023-02-17T00:20:45.818Z,42.90
2023-02-17T00:23:12.568Z,41.55
2023-02-17T00:25:39.703Z,41.30
2023-02-17T00:28:06.608Z,42.10
2023-02-17T00:30:33.659Z,40.65
2023-02-17T00:33:00.489Z,40.50
2023-02-17T00:35:27.324Z,38.72
2023-02-17T00:37:54.064Z,38.75
2023-02-17T00:40:21.534Z,37.72
2023-02-17T00:42:49.068Z,38.15
2023-02-17T00:45:16.141Z,36.88
2023-02-17T00:47:42.976Z,36.50
2023-02-17T00:50:10.148Z,35.47
2023-02-17T00:52:36.886Z,34.90
2023-02-17T00:55:03.885Z,34.58
2023-02-17T00:57:32.494Z,34.45
2023-02-17T00:59:59.521Z,34.55
2023-02-17T01:02:26.419Z,34.58
2023-02-17T01:04:53.684Z,36.25
2023-02-17T01:07:20.621Z,34.53
2023-02-17T01:09:47.412Z,33.78
2023-02-17T01:12:14.228Z,34.17
2023-02-17T01:14:41.217Z,35.35
2023-02-17T01:17:08.121Z,34.75
2023-02-17T01:19:35.065Z,34.28
2023-02-17T01:22:01.894Z,34.60
2023-02-17T01:24:28.708Z,33.38
2023-02-17T01:26:55.751Z,34.05
2023-02-17T01:29:22.816Z,33.88
2023-02-17T01:31:50.000Z,33.78
2023-02-17T01:34:16.783Z,33.17
2023-02-17T01:36:43.722Z,33.60
2023-02-17T01:39:13.163Z,33.33
2023-02-17T01:41:41.027Z,33.80
2023-02-17T01:44:20.959Z,33.35
2023-02-17T01:46:52.818Z,33.95
2023-02-17T01:49:33.826Z,33.53
2023-02-17T01:52:13.683Z,34.45
2023-02-17T01:54:55.600Z,33.85
2023-02-17T01:57:26.617Z,33.60
2023-02-17T01:59:54.295Z,34.15
2023-02-17T02:02:21.733Z,36.45
2023-02-17T02:04:53.298Z,37.55
2023-02-17T02:07:33.870Z,36.83
2023-02-17T02:10:00.774Z,38.38
2023-02-17T02:12:30.148Z,37.85
2023-02-17T02:15:15.355Z,38.08
2023-02-17T02:17:51.075Z,38.42
2023-02-17T02:20:56.486Z,38.00
2023-02-17T02:23:51.498Z,38.30
2023-02-17T02:26:49.018Z,38.38
2023-02-17T02:29:31.200Z,38.58
2023-02-17T02:32:22.907Z,36.65
2023-02-17T02:34:58.474Z,35.85
2023-02-17T02:37:32.502Z,37.53
2023-02-17T02:42:28.595Z,38.30
2023-02-17T02:44:55.362Z,40.35
2023-02-17T02:47:48.948Z,42.28
2023-02-17T02:50:33.828Z,44.63
2023-02-17T02:53:13.715Z,45.88
2023-02-17T02:55:55.416Z,43.08
2023-02-17T02:58:36.586Z,43.45
2023-02-17T03:01:26.562Z,43.15
2023-02-17T03:04:09.181Z,43.88
2023-02-17T03:06:53.712Z,43.40
2023-02-17T03:09:24.713Z,43.72
2023-02-17T03:11:52.927Z,43.90
2023-02-17T03:14:21.324Z,45.03
2023-02-17T03:16:49.262Z,44.35
2023-02-17T03:19:17.832Z,44.28
2023-02-17T03:21:59.365Z,44.28
2023-02-17T03:24:26.377Z,44.42
2023-02-17T03:26:53.414Z,44.40
2023-02-17T03:29:20.232Z,43.35
2023-02-17T03:31:47.328Z,44.80
2023-02-17T03:34:14.190Z,43.55
2023-02-17T03:36:40.949Z,44.30
2023-02-17T03:39:07.766Z,43.83
2023-02-17T03:41:34.780Z,44.30
2023-02-17T03:44:01.833Z,44.08
2023-02-17T03:46:28.685Z,43.75
2023-02-17T03:48:55.563Z,43.20
2023-02-17T03:51:24.182Z,43.53
2023-02-17T03:53:51.820Z,43.95
2023-02-17T03:56:19.159Z,43.72
2023-02-17T03:58:46.269Z,43.95
2023-02-17T04:01:13.997Z,43.38
2023-02-17T04:03:41.468Z,43.67
2023-02-17T04:06:08.841Z,43.63
2023-02-17T04:08:36.549Z,43.80
2023-02-17T04:11:05.237Z,41.95
2023-02-17T04:13:32.867Z,42.13
2023-02-17T04:16:01.530Z,42.45
2023-02-17T04:18:28.854Z,42.50
2023-02-17T04:20:55.633Z,42.92
2023-02-17T04:23:22.491Z,41.05
2023-02-17T04:25:49.497Z,41.78
2023-02-17T04:28:17.077Z,42.15
2023-02-17T04:30:49.137Z,42.58
2023-02-17T04:33:16.646Z,41.95
2023-02-17T04:35:43.573Z,43.20
2023-02-17T04:38:11.346Z,44.05
2023-02-17T04:40:40.031Z,41.30
2023-02-17T04:43:06.898Z,43.58
2023-02-17T04:45:35.429Z,42.65
2023-02-17T04:48:02.260Z,41.90
2023-02-17T04:50:29.109Z,41.33
2023-02-17T04:52:55.985Z,41.55
2023-02-17T04:55:22.747Z,42.80
2023-02-17T04:57:49.455Z,42.05
2023-02-17T05:00:16.464Z,41.53
2023-02-17T05:02:43.258Z,43.25
2023-02-17T05:05:10.376Z,43.15
2023-02-17T05:07:37.181Z,42.13
2023-02-17T05:10:04.143Z,41.40
2023-02-17T05:12:31.029Z,42.67
2023-02-17T05:14:57.761Z,42.65
2023-02-17T05:17:24.538Z,42.33
2023-02-17T05:19:51.330Z,41.75
2023-02-17T05:22:18.155Z,41.50
2023-02-17T05:24:44.931Z,40.53
2023-02-17T05:27:11.825Z,41.03
2023-02-17T05:29:38.613Z,41.60
2023-02-17T05:32:05.391Z,41.38
2023-02-17T05:34:32.780Z,41.67
2023-02-17T05:36:59.773Z,41.58
2023-02-17T05:39:26.613Z,40.78
2023-02-17T05:41:54.153Z,43.00
2023-02-17T05:44:22.359Z,40.90
2023-02-17T05:46:49.272Z,40.67
2023-02-17T05:49:16.038Z,41.83
2023-02-17T05:51:42.935Z,40.55
2023-02-17T05:54:09.901Z,41.38
2023-02-17T05:56:36.680Z,40.40
2023-02-17T05:59:03.492Z,39.85
2023-02-17T06:01:30.277Z,41.20
2023-02-17T06:03:57.067Z,38.70
2023-02-17T06:06:23.922Z,40.00
2023-02-17T06:08:51.482Z,39.72
2023-02-17T06:11:18.303Z,39.78
2023-02-17T06:13:45.170Z,42.22
2023-02-17T06:16:11.924Z,41.03
2023-02-17T06:18:38.738Z,40.28
2023-02-17T06:21:05.758Z,40.50
2023-02-17T06:23:32.520Z,40.00
2023-02-17T06:25:59.414Z,41.05
2023-02-17T06:28:27.505Z,40.05
2023-02-17T06:30:54.333Z,40.25
2023-02-17T06:33:21.142Z,40.00
2023-02-17T06:35:50.191Z,39.75
2023-02-17T06:38:17.261Z,38.92
2023-02-17T06:40:44.453Z,39.67
2023-02-17T06:43:11.470Z,39.80
2023-02-17T06:45:38.316Z,38.40
2023-02-17T06:48:05.196Z,37.33
2023-02-17T06:50:32.023Z,38.00
2023-02-17T06:52:58.916Z,38.42
2023-02-17T06:55:25.737Z,39.25
2023-02-17T06:57:52.631Z,38.00
2023-02-17T07:00:20.208Z,40.35
2023-02-17T07:02:47.228Z,39.03
2023-02-17T07:05:14.171Z,41.03
2023-02-17T07:07:40.888Z,38.22
2023-02-17T07:10:08.358Z,36.55
2023-02-17T07:12:35.185Z,36.55
2023-02-17T07:15:01.957Z,37.47
2023-02-17T07:17:28.707Z,36.58
2023-02-17T07:19:55.522Z,32.92
2023-02-17T07:22:25.467Z,33.10
2023-02-17T07:24:52.434Z,37.50
2023-02-17T07:27:19.193Z,37.67
2023-02-17T07:29:45.906Z,34.45
2023-02-17T07:32:12.718Z,34.55
2023-02-17T07:34:39.535Z,36.72
2023-02-17T07:37:06.311Z,37.13
2023-02-17T07:39:34.162Z,34.28
2023-02-17T07:42:01.222Z,35.38
2023-02-17T07:44:28.513Z,33.92
2023-02-17T07:46:55.385Z,35.20
2023-02-17T07:49:22.205Z,35.03
2023-02-17T07:51:49.032Z,34.65
2023-02-17T07:54:15.900Z,34.55
2023-02-17T07:56:42.738Z,35.20
2023-02-17T07:59:11.218Z,34.88
2023-02-17T08:01:38.374Z,35.75
2023-02-17T08:04:05.493Z,35.22
2023-02-17T08:06:32.457Z,35.05
2023-02-17T08:09:17.770Z,34.47
2023-02-17T08:12:03.380Z,35.33
2023-02-17T08:14:31.922Z,36.72
2023-02-17T08:16:58.979Z,36.70
2023-02-17T08:19:28.394Z,36.03
2023-02-17T08:21:56.845Z,35.58
2023-02-17T08:24:24.814Z,37.53
2023-02-17T08:26:51.862Z,36.25
2023-02-17T08:29:20.382Z,35.72
2023-02-17T08:31:51.131Z,35.53
2023-02-17T08:34:18.338Z,35.33
2023-02-17T08:36:45.074Z,37.22
2023-02-17T08:39:14.994Z,34.67
2023-02-17T08:41:44.179Z,34.70
2023-02-17T08:44:14.705Z,36.83
2023-02-17T08:46:43.910Z,36.30
2023-02-17T08:49:11.232Z,36.38
2023-02-17T08:51:38.304Z,34.72
2023-02-17T08:54:07.517Z,36.78
2023-02-17T08:56:36.277Z,35.90
2023-02-17T08:59:03.516Z,38.65
2023-02-17T09:01:31.075Z,36.85
2023-02-17T09:03:59.623Z,43.67
2023-02-17T09:06:42.505Z,37.10
2023-02-17T09:09:12.059Z,35.83
2023-02-17T09:11:38.920Z,37.45
2023-02-17T09:14:06.793Z,36.50
2023-02-17T09:16:33.632Z,36.80
2023-02-17T09:19:00.573Z,37.78
2023-02-17T09:21:27.575Z,40.10
2023-02-17T09:23:54.533Z,37.88
2023-02-17T09:26:21.614Z,37.88
2023-02-17T09:28:49.257Z,37.38
2023-02-17T09:31:24.375Z,37.17
2023-02-17T09:33:51.718Z,37.80
2023-02-17T09:36:24.925Z,37.10
2023-02-17T09:38:52.673Z,36.83
2023-02-17T09:41:58.390Z,36.40
2023-02-17T09:44:31.842Z,41.13
2023-02-17T09:47:22.406Z,37.55
2023-02-17T09:49:57.564Z,37.55
2023-02-17T09:52:27.683Z,37.63
2023-02-17T09:55:07.916Z,37.22
2023-02-17T09:57:41.704Z,38.38
2023-02-17T10:00:41.589Z,38.08
2023-02-17T10:03:25.086Z,36.38
2023-02-17T10:06:18.273Z,37.77
2023-02-17T10:08:53.857Z,36.05
2023-02-17T10:11:28.132Z,35.83
2023-02-17T10:13:59.598Z,35.28
2023-02-17T10:16:36.619Z,35.60
2023-02-17T10:19:16.038Z,36.35
2023-02-17T10:21:48.435Z,34.70
2023-02-17T10:24:15.215Z,35.38
2023-02-17T10:27:15.973Z,34.90
2023-02-17T10:29:49.853Z,32.15
2023-02-17T10:32:24.102Z,34.17
2023-02-17T10:35:14.238Z,34.10
2023-02-17T10:38:15.189Z,33.97
2023-02-17T10:40:42.483Z,31.25
2023-02-17T10:43:12.338Z,34.33
2023-02-17T10:45:43.658Z,32.53
2023-02-17T10:48:18.882Z,32.60
2023-02-17T10:50:47.391Z,34.67
2023-02-17T10:53:15.062Z,32.70
2023-02-17T10:55:48.264Z,33.47
2023-02-17T10:58:23.384Z,33.37
2023-02-17T11:00:56.514Z,32.58
2023-02-17T11:03:27.542Z,35.10
2023-02-17T11:06:02.748Z,33.03
2023-02-17T11:08:45.272Z,33.53
2023-02-17T11:11:21.115Z,33.25
2023-02-17T11:14:08.077Z,33.08
2023-02-17T11:16:47.391Z,34.42
2023-02-17T11:19:30.710Z,32.97
2023-02-17T11:21:59.842Z,32.70
2023-02-17T11:24:28.896Z,32.65
2023-02-17T11:27:26.350Z,31.60
2023-02-17T11:29:55.550Z,32.00
2023-02-17T11:32:32.561Z,32.22
2023-02-17T11:35:06.298Z,30.50
2023-02-17T11:37:37.810Z,31.38
2023-02-17T11:40:26.049Z,30.40
2023-02-17T11:42:58.526Z,31.00
2023-02-17T11:45:47.134Z,29.02
2023-02-17T11:48:32.892Z,29.60
2023-02-17T11:51:14.451Z,30.60
2023-02-17T11:54:10.384Z,30.38
2023-02-17T11:56:46.625Z,30.40
2023-02-17T11:59:35.278Z,30.40
2023-02-17T12:02:23.258Z,30.45
2023-02-17T12:05:09.968Z,28.10
2023-02-17T12:07:51.836Z,27.60
2023-02-17T12:10:40.349Z,27.00
2023-02-17T12:13:28.383Z,25.73
2023-02-17T12:16:14.853Z,24.90
2023-02-17T12:19:01.933Z,26.45
2023-02-17T12:21:43.790Z,25.85
2023-02-17T12:24:34.950Z,26.02
2023-02-17T12:27:20.436Z,24.50
2023-02-17T12:30:08.315Z,24.80
2023-02-17T12:33:04.824Z,24.10
2023-02-17T12:35:45.634Z,24.63
2023-02-17T12:38:16.988Z,25.30
2023-02-17T12:41:22.273Z,23.65
2023-02-17T12:44:32.634Z,22.83
2023-02-17T12:47:06.224Z,18.75
2023-02-17T12:49:48.466Z,17.95
2023-02-17T12:52:26.263Z,15.50
2023-02-17T12:55:23.615Z,11.02
2023-02-17T12:58:22.556Z,12.45
2023-02-17T13:00:57.209Z,14.40
2023-02-17T13:03:24.863Z,15.30
2023-02-17T13:06:05.948Z,14.18
2023-02-17T13:08:55.112Z,13.05
2023-02-17T13:11:31.212Z,9.15
2023-02-17T13:13:58.963Z,6.53
2023-02-17T13:16:25.870Z,4.60
2023-02-17T13:18:52.941Z,4.90
2023-02-17T13:21:27.591Z,6.78
2023-02-17T13:24:11.093Z,5.95
2023-02-17T13:26:40.080Z,4.80
2023-02-17T13:29:19.653Z,5.60
2023-02-17T13:32:02.288Z,5.22
2023-02-17T13:34:39.096Z,4.63
2023-02-17T13:37:25.268Z,4.32
2023-02-17T13:39:52.654Z,3.90
2023-02-17T13:42:37.800Z,3.58
2023-02-17T13:45:39.747Z,8.10
2023-02-17T13:48:23.731Z,5.05
2023-02-17T13:51:01.750Z,5.35
2023-02-17T13:53:28.540Z,4.65
2023-02-17T13:55:59.649Z,4.82
2023-02-17T13:58:38.285Z,4.93
2023-02-17T14:01:07.820Z,5.25
2023-02-17T14:03:42.117Z,4.90
2023-02-17T14:06:46.470Z,6.00
2023-02-17T14:09:22.611Z,6.40
2023-02-17T14:11:50.964Z,5.82
2023-02-17T14:14:18.222Z,5.32
2023-02-17T14:16:45.860Z,5.57
2023-02-17T14:19:19.185Z,5.75
2023-02-17T14:22:02.069Z,5.40
2023-02-17T14:24:33.608Z,5.43
2023-02-17T14:27:09.286Z,5.55
2023-02-17T14:29:47.668Z,6.45
2023-02-17T14:32:36.098Z,6.50
2023-02-17T14:35:13.266Z,6.03
2023-02-17T14:37:41.455Z,6.47
2023-02-17T14:40:20.274Z,6.38
2023-02-17T14:42:47.553Z,6.65
2023-02-17T14:45:15.401Z,6.80
2023-02-17T14:47:42.963Z,6.65
2023-02-17T14:50:10.900Z,7.05
2023-02-17T14:52:44.284Z,6.90
2023-02-17T14:55:16.595Z,6.63
2023-02-17T14:57:44.996Z,7.05
2023-02-17T15:00:14.440Z,7.38
2023-02-17T15:02:41.319Z,6.93
2023-02-17T15:05:08.518Z,7.28
2023-02-17T15:07:36.256Z,7.20
2023-02-17T15:10:23.715Z,6.70
2023-02-17T15:12:50.808Z,7.10
2023-02-17T15:15:18.397Z,7.22
2023-02-17T15:17:45.616Z,7.15
2023-02-17T15:20:14.740Z,7.88
2023-02-17T15:22:42.183Z,7.63
2023-02-17T15:25:18.000Z,7.85
2023-02-17T15:27:46.017Z,7.43
2023-02-17T15:30:17.988Z,7.50
2023-02-17T15:32:45.876Z,7.82
2023-02-17T15:35:20.170Z,7.88
2023-02-17T15:37:46.998Z,7.88
2023-02-17T15:40:20.162Z,7.90
2023-02-17T15:42:49.944Z,7.63
2023-02-17T15:45:20.274Z,7.63
2023-02-17T15:47:48.387Z,8.02
2023-02-17T15:50:22.676Z,8.20
2023-02-17T15:52:50.669Z,7.68
2023-02-17T15:55:21.356Z,7.80
2023-02-17T15:57:52.245Z,6.40
2023-02-17T16:00:25.129Z,7.05
2023-02-17T16:02:52.484Z,6.70
2023-02-17T16:05:21.799Z,7.18
2023-02-17T16:07:48.785Z,6.03
2023-02-17T16:10:19.928Z,5.78
2023-02-17T16:12:48.469Z,5.43
2023-02-17T16:15:18.677Z,5.82
2023-02-17T16:17:46.840Z,5.60
2023-02-17T16:20:35.259Z,5.97
2023-02-17T16:23:02.575Z,6.15
2023-02-17T16:25:29.921Z,5.55
2023-02-17T16:27:57.288Z,5.40
2023-02-17T16:30:31.295Z,5.70
2023-02-17T16:35:27.947Z,4.93
2023-02-17T16:38:00.939Z,5.32
2023-02-17T16:40:30.481Z,5.45
2023-02-17T16:42:57.371Z,4.90
2023-02-17T16:45:28.416Z,5.03
2023-02-17T16:47:59.564Z,5.38
2023-02-17T16:50:32.582Z,4.75
2023-02-17T16:53:02.224Z,5.23
2023-02-17T16:55:32.153Z,5.05
2023-02-17T16:57:59.129Z,5.03
2023-02-17T17:00:29.759Z,5.03
2023-02-17T17:02:57.436Z,5.32
2023-02-17T17:05:26.312Z,5.28
2023-02-17T17:07:53.680Z,5.32
2023-02-17T17:10:25.457Z,5.88
2023-02-17T17:12:52.317Z,6.25
2023-02-17T17:15:20.043Z,6.65
2023-02-17T17:17:52.621Z,6.90
2023-02-17T17:20:24.041Z,7.97
2023-02-17T17:22:51.526Z,7.20
2023-02-17T17:25:19.921Z,7.05
2023-02-17T17:27:46.780Z,7.10
2023-02-17T17:30:20.964Z,6.10
2023-02-17T17:32:48.472Z,5.70
2023-02-17T17:35:16.404Z,5.50
2023-02-17T17:37:43.361Z,5.45
2023-02-17T17:40:19.918Z,7.45
2023-02-17T17:42:47.131Z,8.02
2023-02-17T17:45:14.633Z,6.57
2023-02-17T17:47:41.884Z,8.85
2023-02-17T17:50:14.724Z,6.20
2023-02-17T17:52:41.599Z,6.82
2023-02-17T17:55:08.510Z,6.88
2023-02-17T17:57:35.453Z,9.48
2023-02-17T18:00:02.444Z,8.90
2023-02-17T18:02:29.208Z,6.68
2023-02-17T18:04:56.135Z,9.23
2023-02-17T18:07:23.012Z,9.27
2023-02-17T18:09:49.933Z,7.90
2023-02-17T18:12:19.433Z,6.75
2023-02-17T18:14:50.167Z,6.75
2023-02-17T18:17:18.201Z,6.43
2023-02-17T18:19:46.665Z,6.97
2023-02-17T18:22:13.487Z,9.50
2023-02-17T18:24:41.292Z,6.07
2023-02-17T18:27:08.110Z,6.53
2023-02-17T18:29:34.885Z,6.88
2023-02-17T18:32:01.757Z,15.55
2023-02-17T18:34:28.578Z,14.93
2023-02-17T18:36:55.344Z,12.40
2023-02-17T18:39:22.123Z,9.10
2023-02-17T18:41:49.031Z,8.40
2023-02-17T18:44:15.827Z,7.00
2023-02-17T18:46:43.191Z,6.25
2023-02-17T18:49:10.164Z,6.85
2023-02-17T18:51:36.990Z,7.20
2023-02-17T18:54:05.660Z,7.00
2023-02-17T18:56:33.926Z,6.70
2023-02-17T18:59:00.994Z,6.35
2023-02-17T19:01:33.217Z,7.38
2023-02-17T19:04:00.162Z,7.13
2023-02-17T19:06:34.414Z,7.18
2023-02-17T19:09:01.842Z,6.68
2023-02-17T19:11:28.641Z,7.03
2023-02-17T19:13:55.545Z,7.10
2023-02-17T19:16:28.536Z,7.20
2023-02-17T19:18:56.694Z,7.72
2023-02-17T19:21:23.940Z,7.38
2023-02-17T19:23:51.448Z,10.95
2023-02-17T19:26:19.376Z,14.55
2023-02-17T19:28:46.717Z,16.98
2023-02-17T19:31:16.753Z,13.35
2023-02-17T19:33:44.877Z,11.43
2023-02-17T19:36:20.524Z,13.60
2023-02-17T19:38:48.793Z,10.40
2023-02-17T19:41:17.766Z,15.13
2023-02-17T19:43:45.417Z,15.68
2023-02-17T19:46:18.278Z,18.70
2023-02-17T19:48:45.214Z,22.10
2023-02-17T19:51:13.929Z,21.77
2023-02-17T19:53:43.017Z,26.02
2023-02-17T19:56:12.388Z,17.55
2023-02-17T19:58:40.518Z,24.45
2023-02-17T20:01:10.128Z,15.13
2023-02-17T20:03:37.060Z,15.77
2023-02-17T20:06:09.740Z,16.85
2023-02-17T20:08:37.706Z,12.95
2023-02-17T20:11:07.897Z,13.23
2023-02-17T20:13:45.191Z,11.55
2023-02-17T20:16:14.953Z,11.93
2023-02-17T20:18:44.791Z,12.30
2023-02-17T20:21:14.514Z,17.98
2023-02-17T20:23:41.953Z,18.08
2023-02-17T20:26:11.306Z,18.58
2023-02-17T20:28:38.488Z,19.75
2023-02-17T20:31:06.250Z,16.25
2023-02-17T20:33:33.404Z,13.20
2023-02-17T20:36:00.706Z,13.88
2023-02-17T20:38:27.888Z,10.23
2023-02-17T20:40:54.745Z,9.82
2023-02-17T20:43:21.676Z,9.63
2023-02-17T20:45:49.573Z,9.90
2023-02-17T20:48:16.849Z,9.50
2023-02-17T20:50:44.408Z,10.23
2023-02-17T20:53:11.806Z,9.77
2023-02-17T20:55:39.131Z,10.02
2023-02-17T20:58:06.055Z,9.07
2023-02-17T21:00:32.883Z,9.73
2023-02-17T21:03:02.054Z,10.75
2023-02-17T21:05:28.996Z,11.27
2023-02-17T21:07:56.852Z,10.95
2023-02-17T21:10:28.125Z,11.20
2023-02-17T21:12:55.278Z,10.00
2023-02-17T21:15:22.615Z,10.30
2023-02-17T21:17:49.957Z,10.35
2023-02-17T21:20:20.001Z,10.60
2023-02-17T21:22:47.057Z,10.27
2023-02-17T21:25:15.713Z,11.07
2023-02-17T21:27:42.546Z,10.45
2023-02-17T21:30:10.249Z,10.85
2023-02-17T21:32:37.730Z,9.63
2023-02-17T21:35:04.818Z,10.10
2023-02-17T21:37:31.710Z,10.15
2023-02-17T21:39:59.203Z,10.73
2023-02-17T21:42:45.919Z,20.63
2023-02-17T21:45:12.875Z,13.75
2023-02-17T21:47:39.741Z,10.45
2023-02-17T21:50:07.534Z,10.10
2023-02-17T21:52:34.314Z,10.77
2023-02-17T21:55:01.729Z,11.52
2023-02-17T21:57:28.637Z,11.25
2023-02-17T21:59:55.487Z,10.70
2023-02-17T22:02:22.336Z,11.02
2023-02-17T22:04:49.238Z,12.32
2023-02-17T22:07:16.134Z,10.82
2023-02-17T22:09:42.896Z,11.15
2023-02-17T22:12:09.772Z,11.85
2023-02-17T22:14:36.596Z,15.45
2023-02-17T22:17:03.583Z,11.00
2023-02-17T22:19:31.579Z,11.63
2023-02-17T22:21:58.644Z,11.85
2023-02-17T22:24:27.286Z,11.18
2023-02-17T22:26:54.393Z,12.40
2023-02-17T22:29:21.361Z,11.73
2023-02-17T22:31:50.353Z,11.82
2023-02-17T22:34:17.538Z,12.25
2023-02-17T22:36:44.606Z,11.35
2023-02-17T22:39:11.711Z,11.98
2023-02-17T22:41:39.528Z,12.82
2023-02-17T22:44:07.341Z,12.52
2023-02-17T22:46:34.758Z,11.52
2023-02-17T22:49:02.033Z,11.82
2023-02-17T22:51:35.525Z,13.63
2023-02-17T22:54:02.746Z,11.95
2023-02-17T22:56:30.196Z,11.38
2023-02-17T22:59:00.877Z,11.50
2023-02-17T23:01:30.698Z,10.48
2023-02-17T23:03:57.513Z,11.57
2023-02-17T23:06:28.212Z,11.38
2023-02-17T23:08:58.221Z,11.70
2023-02-17T23:14:39.746Z,10.50
2023-02-17T23:17:09.734Z,10.55
2023-02-17T23:19:37.314Z,10.50
2023-02-17T23:22:10.867Z,10.73
2023-02-17T23:24:37.945Z,10.23
2023-02-17T23:27:04.772Z,10.07
2023-02-17T23:29:31.913Z,10.30
2023-02-17T23:31:59.544Z,9.82
2023-02-17T23:34:27.140Z,9.80
2023-02-17T23:36:53.965Z,9.05
2023-02-17T23:39:20.857Z,9.63
2023-02-17T23:41:47.736Z,9.85
2023-02-17T23:44:15.576Z,10.75
2023-02-17T23:46:43.762Z,9.20
2023-02-17T23:49:14.811Z,8.90
2023-02-17T23:51:42.134Z,9.48
2023-02-17T23:54:08.981Z,8.80
2023-02-17T23:56:36.249Z,9.20
2023-02-17T23:59:03.773Z,9.20
